Atwood, Colorado
Current Conditions -  °F | °C
As of 5:55 PM on Tuesday 21 Oct 2014 (Local Time) from KSTK Reporting Station
Clear Clear  
Wind Chill: 73°   Ceiling: Unl
Heat Index: 73°   Visibility: 10mi
Dew Point: 39°   Wind: 10mph
Humidity: 29%   Direction: 170°S
Pressure: 29.84"   Gusts: NA
Location:  40.55°N, 103.27°W
Report Text: KSTK 212355Z AUTO 17009KT 10SM CLR 23/04 A2984 RMK AO2 LTG DSNT SW
Loading
Personal Weather Stations






























Interactive Weather Map
Tropical Storm Tracking
New forecast layout! Learn more

10-Day Weather Forecast

Advertisements
Track Severe Weather on mobile